sensor_id;sensor_type;location;lat;lon;timestamp;temperature;humidity
8988;DHT22;4529;51.360;12.474;2023-04-21T00:01:56;10.60;99.90
8988;DHT22;4529;51.360;12.474;2023-04-21T00:07:00;10.60;99.90
8988;DHT22;4529;51.360;12.474;2023-04-21T00:12:03;10.50;99.90
8988;DHT22;4529;51.360;12.474;2023-04-21T00:17:07;10.60;99.90
8988;DHT22;4529;51.360;12.474;2023-04-21T00:22:10;10.60;99.90
8988;DHT22;4529;51.360;12.474;2023-04-21T00:27:14;10.50;99.90
8988;DHT22;4529;51.360;12.474;2023-04-21T00:32:17;10.40;99.90
8988;DHT22;4529;51.360;12.474;2023-04-21T00:37:21;10.40;99.90
8988;DHT22;4529;51.360;12.474;2023-04-21T00:42:24;10.30;99.90
8988;DHT22;4529;51.360;12.474;2023-04-21T00:47:28;10.30;99.90
8988;DHT22;4529;51.360;12.474;2023-04-21T00:52:32;10.30;99.90
8988;DHT22;4529;51.360;12.474;2023-04-21T00:57:35;10.30;99.90
8988;DHT22;4529;51.360;12.474;2023-04-21T01:02:38;10.30;99.90
8988;DHT22;4529;51.360;12.474;2023-04-21T01:07:42;10.30;99.90
8988;DHT22;4529;51.360;12.474;2023-04-21T01:12:46;10.30;99.90
8988;DHT22;4529;51.360;12.474;2023-04-21T01:17:50;10.30;99.90
8988;DHT22;4529;51.360;12.474;2023-04-21T01:22:55;10.30;99.90
8988;DHT22;4529;51.360;12.474;2023-04-21T01:27:59;10.30;99.90
8988;DHT22;4529;51.360;12.474;2023-04-21T01:33:03;10.30;99.90
8988;DHT22;4529;51.360;12.474;2023-04-21T01:38:06;10.20;99.90
8988;DHT22;4529;51.360;12.474;2023-04-21T01:43:10;10.20;99.90
8988;DHT22;4529;51.360;12.474;2023-04-21T01:48:13;10.20;99.90
8988;DHT22;4529;51.360;12.474;2023-04-21T01:53:18;10.20;99.90
8988;DHT22;4529;51.360;12.474;2023-04-21T01:58:22;10.20;99.90
8988;DHT22;4529;51.360;12.474;2023-04-21T02:03:25;10.20;99.90
8988;DHT22;4529;51.360;12.474;2023-04-21T02:08:28;10.20;99.90
8988;DHT22;4529;51.360;12.474;2023-04-21T02:13:32;10.20;99.90
8988;DHT22;4529;51.360;12.474;2023-04-21T02:18:35;10.10;99.90
8988;DHT22;4529;51.360;12.474;2023-04-21T02:23:39;10.10;99.90
8988;DHT22;4529;51.360;12.474;2023-04-21T02:28:42;10.10;99.90
8988;DHT22;4529;51.360;12.474;2023-04-21T02:33:46;10.10;99.90
8988;DHT22;4529;51.360;12.474;2023-04-21T02:38:49;10.10;99.90
8988;DHT22;4529;51.360;12.474;2023-04-21T02:43:53;10.10;99.90
8988;DHT22;4529;51.360;12.474;2023-04-21T02:48:58;10.10;99.90
8988;DHT22;4529;51.360;12.474;2023-04-21T02:54:02;10.10;99.90
8988;DHT22;4529;51.360;12.474;2023-04-21T02:59:06;10.10;99.90
8988;DHT22;4529;51.360;12.474;2023-04-21T03:04:10;10.10;99.90
8988;DHT22;4529;51.360;12.474;2023-04-21T03:09:14;10.00;99.90
8988;DHT22;4529;51.360;12.474;2023-04-21T03:14:18;10.00;99.90
8988;DHT22;4529;51.360;12.474;2023-04-21T03:19:21;10.00;99.90
8988;DHT22;4529;51.360;12.474;2023-04-21T03:24:24;10.00;99.90
8988;DHT22;4529;51.360;12.474;2023-04-21T03:29:28;10.00;99.90
8988;DHT22;4529;51.360;12.474;2023-04-21T03:34:31;9.90;99.90
8988;DHT22;4529;51.360;12.474;2023-04-21T03:39:35;9.90;99.90
8988;DHT22;4529;51.360;12.474;2023-04-21T03:44:39;9.90;99.90
8988;DHT22;4529;51.360;12.474;2023-04-21T03:49:43;9.80;99.90
8988;DHT22;4529;51.360;12.474;2023-04-21T03:54:48;9.70;99.90
8988;DHT22;4529;51.360;12.474;2023-04-21T03:59:51;9.70;99.90
8988;DHT22;4529;51.360;12.474;2023-04-21T04:04:55;9.70;99.90
8988;DHT22;4529;51.360;12.474;2023-04-21T04:09:58;9.70;99.90
8988;DHT22;4529;51.360;12.474;2023-04-21T04:15:02;9.60;99.90
8988;DHT22;4529;51.360;12.474;2023-04-21T04:20:06;9.60;99.90
8988;DHT22;4529;51.360;12.474;2023-04-21T04:25:10;9.50;99.90
8988;DHT22;4529;51.360;12.474;2023-04-21T04:30:14;9.50;99.90
8988;DHT22;4529;51.360;12.474;2023-04-21T04:35:18;9.50;99.90
8988;DHT22;4529;51.360;12.474;2023-04-21T04:40:22;9.50;99.90
8988;DHT22;4529;51.360;12.474;2023-04-21T04:45:26;9.50;99.90
8988;DHT22;4529;51.360;12.474;2023-04-21T04:50:30;9.50;99.90
8988;DHT22;4529;51.360;12.474;2023-04-21T04:55:35;9.60;99.90
8988;DHT22;4529;51.360;12.474;2023-04-21T05:00:39;9.70;99.90
8988;DHT22;4529;51.360;12.474;2023-04-21T05:05:43;9.60;99.90
8988;DHT22;4529;51.360;12.474;2023-04-21T05:10:47;9.50;99.90
8988;DHT22;4529;51.360;12.474;2023-04-21T05:15:57;9.40;99.90
8988;DHT22;4529;51.360;12.474;2023-04-21T05:21:01;9.50;99.90
8988;DHT22;4529;51.360;12.474;2023-04-21T05:26:05;9.60;99.90
8988;DHT22;4529;51.360;12.474;2023-04-21T05:31:09;9.70;99.90
8988;DHT22;4529;51.360;12.474;2023-04-21T05:36:14;9.90;99.90
8988;DHT22;4529;51.360;12.474;2023-04-21T05:41:18;10.30;99.90
8988;DHT22;4529;51.360;12.474;2023-04-21T05:46:22;10.50;99.90
8988;DHT22;4529;51.360;12.474;2023-04-21T05:51:26;10.90;99.90
8988;DHT22;4529;51.360;12.474;2023-04-21T05:56:29;10.90;99.90
8988;DHT22;4529;51.360;12.474;2023-04-21T06:01:33;11.10;99.90
8988;DHT22;4529;51.360;12.474;2023-04-21T06:06:36;11.40;99.90
8988;DHT22;4529;51.360;12.474;2023-04-21T06:11:40;11.70;99.90
8988;DHT22;4529;51.360;12.474;2023-04-21T06:16:43;11.90;99.90
8988;DHT22;4529;51.360;12.474;2023-04-21T06:21:47;12.20;99.90
8988;DHT22;4529;51.360;12.474;2023-04-21T06:26:51;12.40;99.90
8988;DHT22;4529;51.360;12.474;2023-04-21T06:31:55;12.80;99.90
8988;DHT22;4529;51.360;12.474;2023-04-21T06:36:59;12.80;99.90
8988;DHT22;4529;51.360;12.474;2023-04-21T06:42:02;13.00;99.90
8988;DHT22;4529;51.360;12.474;2023-04-21T06:47:05;13.10;99.90
8988;DHT22;4529;51.360;12.474;2023-04-21T06:52:09;13.40;99.90
8988;DHT22;4529;51.360;12.474;2023-04-21T06:57:13;13.70;99.90
8988;DHT22;4529;51.360;12.474;2023-04-21T07:02:16;13.90;99.90
8988;DHT22;4529;51.360;12.474;2023-04-21T07:07:19;14.00;99.90
8988;DHT22;4529;51.360;12.474;2023-04-21T07:12:23;14.10;99.90
8988;DHT22;4529;51.360;12.474;2023-04-21T07:17:26;14.30;99.90
8988;DHT22;4529;51.360;12.474;2023-04-21T07:22:30;14.40;99.90
8988;DHT22;4529;51.360;12.474;2023-04-21T07:27:34;14.60;99.90
8988;DHT22;4529;51.360;12.474;2023-04-21T07:32:37;14.80;99.90
8988;DHT22;4529;51.360;12.474;2023-04-21T07:37:40;15.00;99.90
8988;DHT22;4529;51.360;12.474;2023-04-21T07:42:44;15.10;99.90
8988;DHT22;4529;51.360;12.474;2023-04-21T07:47:47;15.20;99.90
8988;DHT22;4529;51.360;12.474;2023-04-21T07:52:51;15.10;99.90
8988;DHT22;4529;51.360;12.474;2023-04-21T07:57:54;15.00;99.90
8988;DHT22;4529;51.360;12.474;2023-04-21T08:02:57;14.90;99.90
8988;DHT22;4529;51.360;12.474;2023-04-21T08:08:01;14.90;99.90
8988;DHT22;4529;51.360;12.474;2023-04-21T08:13:05;15.10;99.90
8988;DHT22;4529;51.360;12.474;2023-04-21T08:18:09;15.20;99.90
8988;DHT22;4529;51.360;12.474;2023-04-21T08:23:14;15.40;99.90
8988;DHT22;4529;51.360;12.474;2023-04-21T08:28:17;15.40;99.90
8988;DHT22;4529;51.360;12.474;2023-04-21T08:33:22;15.50;99.90
8988;DHT22;4529;51.360;12.474;2023-04-21T08:38:26;15.60;99.90
8988;DHT22;4529;51.360;12.474;2023-04-21T08:43:30;15.70;99.90
8988;DHT22;4529;51.360;12.474;2023-04-21T08:48:36;15.70;99.90
8988;DHT22;4529;51.360;12.474;2023-04-21T08:53:39;15.70;99.90
8988;DHT22;4529;51.360;12.474;2023-04-21T08:58:44;15.90;99.90
8988;DHT22;4529;51.360;12.474;2023-04-21T09:03:48;15.90;99.90
8988;DHT22;4529;51.360;12.474;2023-04-21T09:08:54;16.00;99.90
8988;DHT22;4529;51.360;12.474;2023-04-21T09:13:57;16.10;99.90
8988;DHT22;4529;51.360;12.474;2023-04-21T09:19:01;16.30;99.90
8988;DHT22;4529;51.360;12.474;2023-04-21T09:24:05;16.30;99.90
8988;DHT22;4529;51.360;12.474;2023-04-21T09:29:08;16.50;99.90
8988;DHT22;4529;51.360;12.474;2023-04-21T09:34:18;16.70;99.90
8988;DHT22;4529;51.360;12.474;2023-04-21T09:39:21;16.80;99.90
8988;DHT22;4529;51.360;12.474;2023-04-21T09:44:25;17.10;99.90
8988;DHT22;4529;51.360;12.474;2023-04-21T09:49:30;17.20;99.90
8988;DHT22;4529;51.360;12.474;2023-04-21T09:54:34;17.30;99.90
8988;DHT22;4529;51.360;12.474;2023-04-21T09:59:39;17.40;99.90
8988;DHT22;4529;51.360;12.474;2023-04-21T10:04:42;17.50;99.90
8988;DHT22;4529;51.360;12.474;2023-04-21T10:09:55;17.60;99.90
8988;DHT22;4529;51.360;12.474;2023-04-21T10:15:02;17.60;99.90
8988;DHT22;4529;51.360;12.474;2023-04-21T10:20:03;17.80;99.90
8988;DHT22;4529;51.360;12.474;2023-04-21T10:25:07;18.00;99.90
8988;DHT22;4529;51.360;12.474;2023-04-21T10:30:22;18.00;99.90
8988;DHT22;4529;51.360;12.474;2023-04-21T10:35:36;18.20;99.90
8988;DHT22;4529;51.360;12.474;2023-04-21T10:40:33;18.00;99.90
8988;DHT22;4529;51.360;12.474;2023-04-21T10:45:36;18.00;99.90
8988;DHT22;4529;51.360;12.474;2023-04-21T10:50:40;18.00;99.90
8988;DHT22;4529;51.360;12.474;2023-04-21T10:55:47;18.10;99.90
8988;DHT22;4529;51.360;12.474;2023-04-21T11:00:52;18.30;99.90
8988;DHT22;4529;51.360;12.474;2023-04-21T11:05:52;18.30;99.90
8988;DHT22;4529;51.360;12.474;2023-04-21T11:10:56;18.30;99.90
8988;DHT22;4529;51.360;12.474;2023-04-21T11:16:01;18.30;99.90
8988;DHT22;4529;51.360;12.474;2023-04-21T11:21:14;18.30;99.90
8988;DHT22;4529;51.360;12.474;2023-04-21T11:26:16;18.30;99.90
8988;DHT22;4529;51.360;12.474;2023-04-21T11:31:20;18.40;99.90
8988;DHT22;4529;51.360;12.474;2023-04-21T11:36:23;18.50;99.90
8988;DHT22;4529;51.360;12.474;2023-04-21T11:41:27;18.60;99.90
8988;DHT22;4529;51.360;12.474;2023-04-21T11:46:30;18.70;99.90
8988;DHT22;4529;51.360;12.474;2023-04-21T11:51:37;18.80;99.90
8988;DHT22;4529;51.360;12.474;2023-04-21T11:56:40;18.90;99.90
8988;DHT22;4529;51.360;12.474;2023-04-21T12:01:50;18.90;99.90
8988;DHT22;4529;51.360;12.474;2023-04-21T12:07:00;18.90;99.90
8988;DHT22;4529;51.360;12.474;2023-04-21T12:12:03;18.90;99.90
8988;DHT22;4529;51.360;12.474;2023-04-21T12:17:06;18.90;99.90
8988;DHT22;4529;51.360;12.474;2023-04-21T12:22:13;19.00;99.90
8988;DHT22;4529;51.360;12.474;2023-04-21T12:27:16;18.90;99.90
8988;DHT22;4529;51.360;12.474;2023-04-21T12:32:20;18.90;99.90
8988;DHT22;4529;51.360;12.474;2023-04-21T12:37:23;18.90;99.90
8988;DHT22;4529;51.360;12.474;2023-04-21T12:42:26;19.10;99.90
8988;DHT22;4529;51.360;12.474;2023-04-21T12:47:30;19.10;99.90
8988;DHT22;4529;51.360;12.474;2023-04-21T12:52:33;19.20;99.90
8988;DHT22;4529;51.360;12.474;2023-04-21T12:57:37;19.30;99.90
8988;DHT22;4529;51.360;12.474;2023-04-21T13:02:40;19.40;99.90
8988;DHT22;4529;51.360;12.474;2023-04-21T13:07:44;19.40;99.90
8988;DHT22;4529;51.360;12.474;2023-04-21T13:12:47;19.40;99.90
8988;DHT22;4529;51.360;12.474;2023-04-21T13:17:50;19.30;99.90
8988;DHT22;4529;51.360;12.474;2023-04-21T13:22:54;19.30;99.90
8988;DHT22;4529;51.360;12.474;2023-04-21T13:27:58;19.30;99.90
8988;DHT22;4529;51.360;12.474;2023-04-21T13:33:02;19.30;99.90
8988;DHT22;4529;51.360;12.474;2023-04-21T13:38:06;19.30;99.90
8988;DHT22;4529;51.360;12.474;2023-04-21T13:43:10;19.20;99.90
8988;DHT22;4529;51.360;12.474;2023-04-21T13:48:14;19.30;99.90
8988;DHT22;4529;51.360;12.474;2023-04-21T13:53:18;19.30;99.90
8988;DHT22;4529;51.360;12.474;2023-04-21T13:58:21;19.40;99.90
8988;DHT22;4529;51.360;12.474;2023-04-21T14:03:25;19.50;99.90
8988;DHT22;4529;51.360;12.474;2023-04-21T14:08:29;19.60;99.10
8988;DHT22;4529;51.360;12.474;2023-04-21T14:13:33;19.90;99.90
8988;DHT22;4529;51.360;12.474;2023-04-21T14:18:37;20.10;98.10
8988;DHT22;4529;51.360;12.474;2023-04-21T14:23:42;20.20;98.00
8988;DHT22;4529;51.360;12.474;2023-04-21T14:28:46;20.30;98.70
8988;DHT22;4529;51.360;12.474;2023-04-21T14:33:50;20.30;98.50
8988;DHT22;4529;51.360;12.474;2023-04-21T14:38:54;20.10;98.00
8988;DHT22;4529;51.360;12.474;2023-04-21T14:43:58;20.00;97.80
8988;DHT22;4529;51.360;12.474;2023-04-21T14:49:02;20.00;99.40
8988;DHT22;4529;51.360;12.474;2023-04-21T14:54:06;19.90;97.70
8988;DHT22;4529;51.360;12.474;2023-04-21T14:59:10;19.90;97.70
8988;DHT22;4529;51.360;12.474;2023-04-21T15:04:13;20.00;97.90
8988;DHT22;4529;51.360;12.474;2023-04-21T15:09:28;20.00;97.40
8988;DHT22;4529;51.360;12.474;2023-04-21T15:14:32;20.00;96.50
8988;DHT22;4529;51.360;12.474;2023-04-21T15:19:36;20.00;97.40
8988;DHT22;4529;51.360;12.474;2023-04-21T15:24:40;19.90;97.70
8988;DHT22;4529;51.360;12.474;2023-04-21T15:29:44;19.90;96.90
8988;DHT22;4529;51.360;12.474;2023-04-21T15:34:48;19.80;96.60
8988;DHT22;4529;51.360;12.474;2023-04-21T15:39:52;19.90;97.00
8988;DHT22;4529;51.360;12.474;2023-04-21T15:44:56;19.90;97.60
8988;DHT22;4529;51.360;12.474;2023-04-21T15:50:00;19.80;97.70
8988;DHT22;4529;51.360;12.474;2023-04-21T15:55:05;19.80;97.00
8988;DHT22;4529;51.360;12.474;2023-04-21T16:00:09;19.70;97.00
8988;DHT22;4529;51.360;12.474;2023-04-21T16:05:13;19.60;98.10
8988;DHT22;4529;51.360;12.474;2023-04-21T16:10:18;19.60;96.80
8988;DHT22;4529;51.360;12.474;2023-04-21T16:15:22;19.60;97.40
8988;DHT22;4529;51.360;12.474;2023-04-21T16:20:26;19.50;96.90
8988;DHT22;4529;51.360;12.474;2023-04-21T16:25:31;19.50;97.00
8988;DHT22;4529;51.360;12.474;2023-04-21T16:30:34;19.40;97.10
8988;DHT22;4529;51.360;12.474;2023-04-21T16:35:38;19.30;97.10
8988;DHT22;4529;51.360;12.474;2023-04-21T16:40:42;19.30;96.70
8988;DHT22;4529;51.360;12.474;2023-04-21T16:45:46;19.20;97.00
8988;DHT22;4529;51.360;12.474;2023-04-21T16:50:51;19.10;97.00
8988;DHT22;4529;51.360;12.474;2023-04-21T16:55:55;19.10;97.20
8988;DHT22;4529;51.360;12.474;2023-04-21T17:00:59;19.00;97.20
8988;DHT22;4529;51.360;12.474;2023-04-21T17:06:03;18.90;97.00
8988;DHT22;4529;51.360;12.474;2023-04-21T17:11:07;18.80;97.90
8988;DHT22;4529;51.360;12.474;2023-04-21T17:16:11;18.70;97.90
8988;DHT22;4529;51.360;12.474;2023-04-21T17:21:15;18.60;98.10
8988;DHT22;4529;51.360;12.474;2023-04-21T17:26:19;18.50;98.30
8988;DHT22;4529;51.360;12.474;2023-04-21T17:31:24;18.30;98.20
8988;DHT22;4529;51.360;12.474;2023-04-21T17:36:28;18.40;98.00
8988;DHT22;4529;51.360;12.474;2023-04-21T17:41:32;18.40;98.20
8988;DHT22;4529;51.360;12.474;2023-04-21T17:46:36;18.40;98.10
8988;DHT22;4529;51.360;12.474;2023-04-21T17:51:40;18.30;97.90
8988;DHT22;4529;51.360;12.474;2023-04-21T17:56:44;18.20;98.10
8988;DHT22;4529;51.360;12.474;2023-04-21T18:01:48;18.10;98.00
8988;DHT22;4529;51.360;12.474;2023-04-21T18:06:53;18.00;98.70
8988;DHT22;4529;51.360;12.474;2023-04-21T18:11:57;17.90;98.60
8988;DHT22;4529;51.360;12.474;2023-04-21T18:17:01;17.80;98.50
8988;DHT22;4529;51.360;12.474;2023-04-21T18:22:04;17.80;98.20
8988;DHT22;4529;51.360;12.474;2023-04-21T18:27:08;17.70;98.70
8988;DHT22;4529;51.360;12.474;2023-04-21T18:32:12;17.50;99.20
8988;DHT22;4529;51.360;12.474;2023-04-21T18:37:15;17.40;99.20
8988;DHT22;4529;51.360;12.474;2023-04-21T18:42:19;17.30;99.30
8988;DHT22;4529;51.360;12.474;2023-04-21T18:47:23;17.00;99.70
8988;DHT22;4529;51.360;12.474;2023-04-21T18:52:27;16.90;99.30
8988;DHT22;4529;51.360;12.474;2023-04-21T18:57:31;16.80;99.50
8988;DHT22;4529;51.360;12.474;2023-04-21T19:02:35;16.70;99.30
8988;DHT22;4529;51.360;12.474;2023-04-21T19:07:39;16.70;99.40
8988;DHT22;4529;51.360;12.474;2023-04-21T19:12:44;16.60;99.20
8988;DHT22;4529;51.360;12.474;2023-04-21T19:17:47;16.60;99.20
8988;DHT22;4529;51.360;12.474;2023-04-21T19:22:51;16.50;99.50
8988;DHT22;4529;51.360;12.474;2023-04-21T19:27:54;16.50;99.40
8988;DHT22;4529;51.360;12.474;2023-04-21T19:32:57;16.40;99.40
8988;DHT22;4529;51.360;12.474;2023-04-21T19:38:01;16.20;99.60
8988;DHT22;4529;51.360;12.474;2023-04-21T19:43:04;16.10;99.90
8988;DHT22;4529;51.360;12.474;2023-04-21T19:48:08;16.00;99.90
8988;DHT22;4529;51.360;12.474;2023-04-21T19:53:13;15.90;99.90
8988;DHT22;4529;51.360;12.474;2023-04-21T19:58:17;15.80;99.90
8988;DHT22;4529;51.360;12.474;2023-04-21T20:03:21;15.80;99.90
8988;DHT22;4529;51.360;12.474;2023-04-21T20:08:25;15.70;99.90
8988;DHT22;4529;51.360;12.474;2023-04-21T20:13:29;15.60;99.90
8988;DHT22;4529;51.360;12.474;2023-04-21T20:18:34;15.50;99.90
8988;DHT22;4529;51.360;12.474;2023-04-21T20:23:37;15.40;99.90
8988;DHT22;4529;51.360;12.474;2023-04-21T20:28:42;15.30;99.90
8988;DHT22;4529;51.360;12.474;2023-04-21T20:33:46;15.20;99.90
8988;DHT22;4529;51.360;12.474;2023-04-21T20:38:50;15.10;99.90
8988;DHT22;4529;51.360;12.474;2023-04-21T20:43:54;15.00;99.90
8988;DHT22;4529;51.360;12.474;2023-04-21T20:48:57;15.00;99.90
8988;DHT22;4529;51.360;12.474;2023-04-21T20:54:01;14.90;99.90
8988;DHT22;4529;51.360;12.474;2023-04-21T20:59:04;14.80;99.90
8988;DHT22;4529;51.360;12.474;2023-04-21T21:04:08;14.70;99.90
8988;DHT22;4529;51.360;12.474;2023-04-21T21:09:12;14.40;99.90
8988;DHT22;4529;51.360;12.474;2023-04-21T21:14:16;14.30;99.90
8988;DHT22;4529;51.360;12.474;2023-04-21T21:19:20;14.10;99.90
8988;DHT22;4529;51.360;12.474;2023-04-21T21:24:24;14.00;99.90
8988;DHT22;4529;51.360;12.474;2023-04-21T21:29:29;13.90;99.90
8988;DHT22;4529;51.360;12.474;2023-04-21T21:34:33;13.90;99.90
8988;DHT22;4529;51.360;12.474;2023-04-21T21:39:37;13.90;99.90
8988;DHT22;4529;51.360;12.474;2023-04-21T21:44:41;13.80;99.90
8988;DHT22;4529;51.360;12.474;2023-04-21T21:49:45;13.80;99.90
8988;DHT22;4529;51.360;12.474;2023-04-21T21:54:49;13.70;99.90
8988;DHT22;4529;51.360;12.474;2023-04-21T21:59:53;13.60;99.90
8988;DHT22;4529;51.360;12.474;2023-04-21T22:04:57;13.50;99.90
8988;DHT22;4529;51.360;12.474;2023-04-21T22:10:02;13.40;99.90
8988;DHT22;4529;51.360;12.474;2023-04-21T22:15:06;13.20;99.90
8988;DHT22;4529;51.360;12.474;2023-04-21T22:20:10;13.20;99.90
8988;DHT22;4529;51.360;12.474;2023-04-21T22:25:13;13.00;99.90
8988;DHT22;4529;51.360;12.474;2023-04-21T22:30:17;12.80;99.90
8988;DHT22;4529;51.360;12.474;2023-04-21T22:35:20;12.60;99.90
8988;DHT22;4529;51.360;12.474;2023-04-21T22:40:23;12.50;99.90
8988;DHT22;4529;51.360;12.474;2023-04-21T22:45:27;12.40;99.90
8988;DHT22;4529;51.360;12.474;2023-04-21T22:50:30;12.30;99.90
8988;DHT22;4529;51.360;12.474;2023-04-21T22:55:34;12.10;99.90
8988;DHT22;4529;51.360;12.474;2023-04-21T23:00:38;12.10;99.90
8988;DHT22;4529;51.360;12.474;2023-04-21T23:05:41;12.10;99.90
8988;DHT22;4529;51.360;12.474;2023-04-21T23:10:45;12.10;99.90
8988;DHT22;4529;51.360;12.474;2023-04-21T23:15:48;12.10;99.90
8988;DHT22;4529;51.360;12.474;2023-04-21T23:20:52;12.10;99.90
8988;DHT22;4529;51.360;12.474;2023-04-21T23:25:56;12.00;99.90
8988;DHT22;4529;51.360;12.474;2023-04-21T23:31:01;12.00;99.90
8988;DHT22;4529;51.360;12.474;2023-04-21T23:36:05;12.00;99.90
8988;DHT22;4529;51.360;12.474;2023-04-21T23:41:09;12.00;99.90
8988;DHT22;4529;51.360;12.474;2023-04-21T23:46:12;12.00;99.90
8988;DHT22;4529;51.360;12.474;2023-04-21T23:51:16;12.00;99.90
8988;DHT22;4529;51.360;12.474;2023-04-21T23:56:19;11.90;99.90
